createdAt,value
2019-03-30T00:00:29.850Z,102149.09
2019-03-30T00:01:39.412Z,102140.33
2019-03-30T00:02:46.217Z,102140.45
2019-03-30T00:03:53.679Z,102137.40
2019-03-30T00:05:05.624Z,102142.72
2019-03-30T00:06:11.669Z,102137.98
2019-03-30T00:07:18.508Z,102137.98
2019-03-30T00:08:24.699Z,102138.08
2019-03-30T00:09:31.283Z,102139.49
2019-03-30T00:10:37.298Z,102135.03
2019-03-30T00:11:43.115Z,102133.81
2019-03-30T00:12:48.764Z,102131.63
2019-03-30T00:13:54.285Z,102134.29
2019-03-30T00:14:59.844Z,102129.55
2019-03-30T00:16:05.782Z,102128.58
2019-03-30T00:17:11.794Z,102133.55
2019-03-30T00:18:17.500Z,102125.18
2019-03-30T00:19:34.444Z,102131.84
2019-03-30T00:20:30.847Z,102129.73
2019-03-30T00:21:36.764Z,102133.38
2019-03-30T00:22:42.417Z,102130.71
2019-03-30T00:23:49.158Z,102128.99
2019-03-30T00:24:55.180Z,102121.48
2019-03-30T00:26:01.712Z,102124.26
2019-03-30T00:27:07.362Z,102123.88
2019-03-30T00:28:16.757Z,102127.01
2019-03-30T00:29:22.506Z,102129.28
2019-03-30T00:30:28.331Z,102125.41
2019-03-30T00:31:34.016Z,102125.88
2019-03-30T00:32:39.596Z,102123.22
2019-03-30T00:33:45.178Z,102121.03
2019-03-30T00:34:51.245Z,102121.12
2019-03-30T00:35:56.876Z,102120.26
2019-03-30T00:37:02.917Z,102122.92
2019-03-30T00:38:08.640Z,102119.02
2019-03-30T00:39:14.987Z,102119.48
2019-03-30T00:40:21.320Z,102123.00
2019-03-30T00:41:28.435Z,102121.80
2019-03-30T00:42:34.794Z,102118.36
2019-03-30T00:43:40.691Z,102115.70
2019-03-30T00:44:46.695Z,102116.55
2019-03-30T00:45:52.527Z,102114.37
2019-03-30T00:46:58.256Z,102113.03
2019-03-30T00:48:04.183Z,102111.83
2019-03-30T00:49:09.742Z,102106.12
2019-03-30T00:50:15.678Z,102114.57
2019-03-30T00:51:21.635Z,102106.70
2019-03-30T00:52:27.278Z,102109.84
2019-03-30T00:53:33.891Z,102109.92
2019-03-30T00:54:39.461Z,102108.59
2019-03-30T00:55:45.913Z,102106.91
2019-03-30T00:56:51.892Z,102104.72
2019-03-30T00:57:57.782Z,102110.98
2019-03-30T00:59:03.467Z,102106.25
2019-03-30T01:00:12.579Z,102113.85
2019-03-30T01:01:18.399Z,102101.02
2019-03-30T01:02:24.180Z,102104.66
2019-03-30T01:03:30.426Z,102104.27
2019-03-30T01:04:36.336Z,102103.02
2019-03-30T01:05:41.991Z,102100.87
2019-03-30T01:06:47.636Z,102100.95
2019-03-30T01:07:53.571Z,102099.70
2019-03-30T01:08:59.605Z,102095.84
2019-03-30T01:10:05.863Z,102097.17
2019-03-30T01:11:11.817Z,102094.59
2019-03-30T01:12:17.446Z,102089.39
2019-03-30T01:13:23.478Z,102093.84
2019-03-30T01:14:28.959Z,102087.28
2019-03-30T01:15:34.872Z,102087.78
2019-03-30T01:16:40.562Z,102089.59
2019-03-30T01:17:46.269Z,102086.16
2019-03-30T01:18:52.029Z,102091.48
2019-03-30T01:20:03.049Z,102084.47
2019-03-30T01:21:05.428Z,102085.89
2019-03-30T01:22:11.118Z,102081.51
2019-03-30T01:23:17.165Z,102083.81
2019-03-30T01:24:22.791Z,102084.67
2019-03-30T01:25:28.355Z,102085.23
2019-03-30T01:26:34.012Z,102082.22
2019-03-30T01:27:39.906Z,102081.83
2019-03-30T01:28:45.496Z,102080.11
2019-03-30T01:29:51.103Z,102080.58
2019-03-30T01:30:56.690Z,102078.04
2019-03-30T01:32:02.329Z,102078.04
2019-03-30T01:33:08.102Z,102081.64
2019-03-30T01:34:13.698Z,102074.61
2019-03-30T01:35:19.485Z,102072.45
2019-03-30T01:36:25.619Z,102075.58
2019-03-30T01:37:31.148Z,102079.19
2019-03-30T01:38:36.766Z,102074.33
2019-03-30T01:39:42.640Z,102080.59
2019-03-30T01:40:48.225Z,102080.24
2019-03-30T01:41:53.856Z,102078.44
2019-03-30T01:42:59.522Z,102074.53
2019-03-30T01:44:05.580Z,102077.67
2019-03-30T01:45:11.380Z,102077.67
2019-03-30T01:46:17.249Z,102075.98
2019-03-30T01:47:22.905Z,102074.27
2019-03-30T01:48:28.785Z,102076.06
2019-03-30T01:49:34.426Z,102070.00
2019-03-30T01:50:40.499Z,102069.50
2019-03-30T01:51:46.128Z,102065.62
2019-03-30T01:52:51.794Z,102070.95
2019-03-30T01:53:57.393Z,102066.57
2019-03-30T01:55:02.989Z,102064.89
2019-03-30T01:56:08.503Z,102063.17
2019-03-30T01:57:14.167Z,102064.97
2019-03-30T01:58:19.761Z,102059.66
2019-03-30T01:59:25.449Z,102062.90
2019-03-30T02:00:31.019Z,102055.75
2019-03-30T02:01:36.680Z,102056.25
2019-03-30T02:02:42.293Z,102054.15
2019-03-30T02:03:47.931Z,102059.94
2019-03-30T02:04:53.554Z,102053.80
2019-03-30T02:05:59.284Z,102057.00
2019-03-30T02:07:05.304Z,102053.41
2019-03-30T02:08:10.973Z,102049.14
2019-03-30T02:09:16.586Z,102046.09
2019-03-30T02:10:39.894Z,102052.27
2019-03-30T02:11:45.471Z,102047.90
2019-03-30T02:12:51.317Z,102047.52
2019-03-30T02:13:57.001Z,102049.42
2019-03-30T02:15:02.848Z,102046.02
2019-03-30T02:16:08.864Z,102044.31
2019-03-30T02:17:14.438Z,102045.25
2019-03-30T02:18:20.369Z,102048.02
2019-03-30T02:19:26.039Z,102044.51
2019-03-30T02:20:39.714Z,102041.46
2019-03-30T02:21:45.285Z,102043.65
2019-03-30T02:22:51.023Z,102043.73
2019-03-30T02:23:56.905Z,102035.88
2019-03-30T02:25:02.494Z,102042.98
2019-03-30T02:26:08.039Z,102039.00
2019-03-30T02:27:13.633Z,102044.78
2019-03-30T02:28:19.213Z,102042.25
2019-03-30T02:29:24.921Z,102038.73
2019-03-30T02:30:30.495Z,102040.53
2019-03-30T02:31:36.422Z,102037.95
2019-03-30T02:32:42.652Z,102040.61
2019-03-30T02:33:48.337Z,102039.78
2019-03-30T02:34:53.819Z,102034.47
2019-03-30T02:35:59.507Z,102035.02
2019-03-30T02:37:05.157Z,102035.99
2019-03-30T02:38:11.177Z,102042.64
2019-03-30T02:39:16.832Z,102038.27
2019-03-30T02:40:22.406Z,102036.94
2019-03-30T02:41:28.031Z,102030.84
2019-03-30T02:42:33.570Z,102038.34
2019-03-30T02:43:39.622Z,102039.32
2019-03-30T02:44:45.538Z,102038.08
2019-03-30T02:45:51.240Z,102039.40
2019-03-30T02:46:56.748Z,102041.20
2019-03-30T02:48:02.843Z,102041.67
2019-03-30T02:49:09.273Z,102034.67
2019-03-30T02:50:15.063Z,102042.25
2019-03-30T02:51:20.696Z,102034.75
2019-03-30T02:52:26.514Z,102031.74
2019-03-30T02:53:32.151Z,102039.20
2019-03-30T02:54:37.703Z,102031.82
2019-03-30T02:55:43.254Z,102037.13
2019-03-30T02:56:48.923Z,102034.09
2019-03-30T02:57:54.862Z,102036.39
2019-03-30T02:59:00.518Z,102029.36
2019-03-30T03:00:08.965Z,102028.89
2019-03-30T03:01:14.711Z,102034.67
2019-03-30T03:02:20.476Z,102031.27
2019-03-30T03:03:26.309Z,102031.74
2019-03-30T03:04:32.058Z,102031.35
2019-03-30T03:05:38.143Z,102029.64
2019-03-30T03:06:44.030Z,102020.81
2019-03-30T03:07:49.585Z,102029.28
2019-03-30T03:08:55.215Z,102024.91
2019-03-30T03:10:00.912Z,102024.05
2019-03-30T03:11:06.427Z,102025.38
2019-03-30T03:12:12.582Z,102019.67
2019-03-30T03:13:18.144Z,102023.66
2019-03-30T03:14:23.753Z,102021.50
2019-03-30T03:15:29.737Z,102024.63
2019-03-30T03:16:35.403Z,102021.98
2019-03-30T03:17:41.596Z,102017.21
2019-03-30T03:18:47.783Z,102023.86
2019-03-30T03:19:53.810Z,102021.78
2019-03-30T03:21:07.928Z,102017.33
2019-03-30T03:22:07.146Z,102024.83
2019-03-30T03:23:13.378Z,102017.41
2019-03-30T03:24:19.202Z,102019.70
2019-03-30T03:25:24.820Z,102022.36
2019-03-30T03:26:30.389Z,102018.84
2019-03-30T03:27:36.169Z,102019.32
2019-03-30T03:28:42.131Z,102018.07
2019-03-30T03:29:48.346Z,102013.61
2019-03-30T03:30:54.241Z,102015.06
2019-03-30T03:31:59.900Z,102012.87
2019-03-30T03:33:05.851Z,102010.69
2019-03-30T03:34:11.433Z,102014.39
2019-03-30T03:35:17.510Z,102013.06
2019-03-30T03:36:23.187Z,102012.20
2019-03-30T03:37:43.132Z,102011.73
2019-03-30T03:38:36.144Z,102008.69
2019-03-30T03:39:41.754Z,102012.28
2019-03-30T03:40:47.444Z,102006.63
2019-03-30T03:41:53.044Z,102012.40
2019-03-30T03:42:58.679Z,102012.48
2019-03-30T03:44:04.508Z,102008.14
2019-03-30T03:45:10.646Z,102004.20
2019-03-30T03:46:16.395Z,102001.11
2019-03-30T03:47:22.041Z,102004.67
2019-03-30T03:48:27.688Z,102000.69
2019-03-30T03:49:33.595Z,102004.67
2019-03-30T03:50:46.865Z,102007.44
2019-03-30T03:51:52.837Z,101999.95
2019-03-30T03:52:58.544Z,102002.21
2019-03-30T03:54:04.657Z,101999.55
2019-03-30T03:55:11.119Z,102003.15
2019-03-30T03:56:17.267Z,102003.65
2019-03-30T03:57:24.085Z,102000.22
2019-03-30T03:58:34.400Z,101999.83
2019-03-30T03:59:41.798Z,102000.33
2019-03-30T04:00:49.285Z,102001.27
2019-03-30T04:01:56.315Z,101997.36
2019-03-30T04:03:03.635Z,102000.02
2019-03-30T04:04:11.009Z,101995.29
2019-03-30T04:05:18.397Z,101996.62
2019-03-30T04:06:24.930Z,101991.39
2019-03-30T04:07:33.806Z,101989.70
2019-03-30T04:08:41.497Z,101990.64
2019-03-30T04:09:49.218Z,101984.94
2019-03-30T04:10:58.080Z,101987.23
2019-03-30T04:12:06.684Z,101989.42
2019-03-30T04:13:14.758Z,101986.85
2019-03-30T04:14:23.730Z,101985.60
2019-03-30T04:15:29.271Z,101990.08
2019-03-30T04:16:34.972Z,101987.04
2019-03-30T04:17:40.951Z,101985.71
2019-03-30T04:18:48.289Z,101981.34
2019-03-30T04:19:54.189Z,101983.14
2019-03-30T04:21:00.113Z,101982.67
2019-03-30T04:22:06.101Z,101977.94
2019-03-30T04:23:12.027Z,101975.28
2019-03-30T04:24:17.827Z,101976.61
2019-03-30T04:25:23.652Z,101976.22
2019-03-30T04:26:29.280Z,101979.34
2019-03-30T04:27:34.809Z,101974.50
2019-03-30T04:28:40.400Z,101970.64
2019-03-30T04:29:46.317Z,101969.78
2019-03-30T04:30:51.987Z,101976.41
2019-03-30T04:31:57.647Z,101976.02
2019-03-30T04:33:03.905Z,101972.91
2019-03-30T04:34:09.464Z,101975.20
2019-03-30T04:35:15.104Z,101973.48
2019-03-30T04:36:20.665Z,101975.86
2019-03-30T04:37:26.342Z,101969.58
2019-03-30T04:38:31.984Z,101974.88
2019-03-30T04:39:38.216Z,101977.19
2019-03-30T04:40:44.072Z,101974.14
2019-03-30T04:41:50.128Z,101968.36
2019-03-30T04:42:55.710Z,101967.11
2019-03-30T04:44:01.321Z,101971.56
2019-03-30T04:45:07.695Z,101969.02
2019-03-30T04:46:13.355Z,101965.90
2019-03-30T04:47:19.137Z,101964.57
2019-03-30T04:48:27.832Z,101958.87
2019-03-30T04:49:32.548Z,101963.32
2019-03-30T04:50:38.856Z,101958.95
2019-03-30T04:51:56.793Z,101958.48
2019-03-30T04:52:52.092Z,101958.95
2019-03-30T04:53:57.704Z,101961.61
2019-03-30T04:55:03.478Z,101954.14
2019-03-30T04:56:09.072Z,101954.61
2019-03-30T04:57:15.010Z,101953.29
2019-03-30T04:58:20.669Z,101946.66
2019-03-30T04:59:26.809Z,101953.64
2019-03-30T05:00:32.855Z,101953.64
2019-03-30T05:01:38.419Z,101953.64
2019-03-30T05:02:44.106Z,101950.16
2019-03-30T05:03:49.990Z,101951.49
2019-03-30T05:04:55.943Z,101949.78
2019-03-30T05:06:01.973Z,101951.96
2019-03-30T05:07:07.621Z,101956.88
2019-03-30T05:08:13.376Z,101952.16
2019-03-30T05:09:19.354Z,101951.18
2019-03-30T05:10:25.001Z,101956.48
2019-03-30T05:11:31.007Z,101954.22
2019-03-30T05:12:36.653Z,101951.18
2019-03-30T05:13:42.230Z,101946.64
2019-03-30T05:14:48.335Z,101954.69
2019-03-30T05:15:54.056Z,101952.16
2019-03-30T05:16:59.980Z,101950.44
2019-03-30T05:18:05.603Z,101947.78
2019-03-30T05:19:11.516Z,101949.97
2019-03-30T05:20:17.238Z,101949.50
2019-03-30T05:21:23.152Z,101954.41
2019-03-30T05:22:29.024Z,101945.13
2019-03-30T05:23:34.742Z,101950.83
2019-03-30T05:24:40.321Z,101950.71
2019-03-30T05:25:46.041Z,101948.06
2019-03-30T05:26:51.969Z,101947.98
2019-03-30T05:27:57.821Z,101951.84
2019-03-30T05:29:03.387Z,101948.18
2019-03-30T05:30:09.226Z,101952.91
2019-03-30T05:31:14.884Z,101953.19
2019-03-30T05:32:20.564Z,101949.59
2019-03-30T05:33:26.166Z,101947.22
2019-03-30T05:34:31.791Z,101947.96
2019-03-30T05:35:37.328Z,101950.53
2019-03-30T05:36:43.036Z,101946.94
2019-03-30T05:37:48.882Z,101942.85
2019-03-30T05:38:54.465Z,101944.09
2019-03-30T05:39:59.987Z,101943.13
2019-03-30T05:41:05.888Z,101942.66
2019-03-30T05:42:11.540Z,101944.84
2019-03-30T05:43:17.871Z,101941.25
2019-03-30T05:44:24.132Z,101938.67
2019-03-30T05:45:30.016Z,101940.39
2019-03-30T05:46:35.515Z,101942.66
2019-03-30T05:47:41.156Z,101940.39
2019-03-30T05:48:46.774Z,101942.11
2019-03-30T05:49:52.366Z,101937.73
2019-03-30T05:50:57.985Z,101934.50
2019-03-30T05:52:04.329Z,101931.37
2019-03-30T05:53:10.394Z,101931.77
2019-03-30T05:54:15.999Z,101927.67
2019-03-30T05:55:21.734Z,101924.07
2019-03-30T05:56:27.309Z,101924.84
2019-03-30T05:57:33.033Z,101929.19
2019-03-30T05:58:38.936Z,101926.45
2019-03-30T05:59:44.484Z,101925.02
2019-03-30T06:00:50.058Z,101929.77
2019-03-30T06:01:56.337Z,101930.91
2019-03-30T06:03:02.303Z,101940.08
2019-03-30T06:04:08.436Z,101929.80
2019-03-30T06:05:14.191Z,101927.50
2019-03-30T06:06:19.845Z,101931.75
2019-03-30T06:07:25.715Z,101929.02
2019-03-30T06:08:31.727Z,101931.09
2019-03-30T06:09:37.279Z,101931.00
2019-03-30T06:10:43.148Z,101934.87
2019-03-30T06:11:48.710Z,101926.73
2019-03-30T06:12:54.623Z,101929.28
2019-03-30T06:14:00.175Z,101934.86
2019-03-30T06:15:06.403Z,101925.95
2019-03-30T06:16:12.072Z,101932.39
2019-03-30T06:17:17.645Z,101927.83
2019-03-30T06:18:23.275Z,101932.20
2019-03-30T06:19:29.716Z,101937.31
2019-03-30T06:20:35.947Z,101937.70
2019-03-30T06:21:41.552Z,101937.50
2019-03-30T06:22:47.061Z,101934.25
2019-03-30T06:23:53.055Z,101935.97
2019-03-30T06:24:58.646Z,101929.71
2019-03-30T06:26:04.482Z,101937.09
2019-03-30T06:27:10.051Z,101933.02
2019-03-30T06:28:15.677Z,101932.91
2019-03-30T06:29:21.242Z,101931.37
2019-03-30T06:30:27.857Z,101931.77
2019-03-30T06:31:33.435Z,101930.70
2019-03-30T06:32:39.031Z,101924.83
2019-03-30T06:33:44.950Z,101928.11
2019-03-30T06:34:50.708Z,101923.18
2019-03-30T06:35:56.281Z,101928.68
2019-03-30T06:37:01.919Z,101928.20
2019-03-30T06:38:07.949Z,101930.19
2019-03-30T06:39:13.894Z,101925.23
2019-03-30T06:40:19.568Z,101926.86
2019-03-30T06:41:25.205Z,101928.54
2019-03-30T06:42:31.141Z,101931.11
2019-03-30T06:43:36.810Z,101929.19
2019-03-30T06:44:42.329Z,101929.45
2019-03-30T06:45:48.360Z,101929.37
2019-03-30T06:46:53.925Z,101933.15
2019-03-30T06:47:59.607Z,101933.53
2019-03-30T06:49:05.619Z,101929.91
2019-03-30T06:50:11.832Z,101932.56
2019-03-30T06:51:17.918Z,101936.94
2019-03-30T06:52:23.617Z,101932.95
2019-03-30T06:53:29.419Z,101932.95
2019-03-30T06:54:35.557Z,101934.66
2019-03-30T06:55:41.322Z,101937.32
2019-03-30T06:56:47.506Z,101939.03
2019-03-30T06:57:53.092Z,101936.38
2019-03-30T06:58:58.716Z,101929.22
2019-03-30T07:00:04.453Z,101935.05
2019-03-30T07:01:10.121Z,101932.73
2019-03-30T07:02:16.496Z,101931.41
2019-03-30T07:03:22.955Z,101933.12
2019-03-30T07:04:28.644Z,101936.52
2019-03-30T07:05:38.819Z,101931.20
2019-03-30T07:06:46.725Z,101935.10
2019-03-30T07:07:52.882Z,101930.17
2019-03-30T07:09:00.017Z,101933.65
2019-03-30T07:10:05.917Z,101930.99
2019-03-30T07:11:21.075Z,101931.37
2019-03-30T07:12:23.935Z,101933.56
2019-03-30T07:13:31.646Z,101930.78
2019-03-30T07:14:40.462Z,101928.98
2019-03-30T07:15:58.728Z,101932.03
2019-03-30T07:17:05.162Z,101930.22
2019-03-30T07:18:11.493Z,101924.31
2019-03-30T07:19:19.006Z,101923.37
2019-03-30T07:20:29.309Z,101929.55
2019-03-30T07:21:35.519Z,101926.77
2019-03-30T07:22:41.361Z,101921.83
2019-03-30T07:23:47.135Z,101920.88
2019-03-30T07:24:53.004Z,101919.55
2019-03-30T07:25:58.695Z,101924.27
2019-03-30T07:27:04.330Z,101925.87
2019-03-30T07:28:09.902Z,101918.27
2019-03-30T07:29:15.836Z,101925.19
2019-03-30T07:30:21.563Z,101922.91
2019-03-30T07:31:27.301Z,101922.78
2019-03-30T07:32:32.960Z,101919.17
2019-03-30T07:33:38.563Z,101924.77
2019-03-30T07:34:44.199Z,101916.78
2019-03-30T07:35:50.191Z,101916.56
2019-03-30T07:36:56.410Z,101923.98
2019-03-30T07:38:02.075Z,101920.00
2019-03-30T07:39:07.770Z,101920.73
2019-03-30T07:40:13.700Z,101921.50
2019-03-30T07:41:19.403Z,101920.05
2019-03-30T07:42:24.909Z,101922.49
2019-03-30T07:43:30.620Z,101919.73
2019-03-30T07:44:36.194Z,101913.94
2019-03-30T07:45:41.875Z,101921.72
2019-03-30T07:46:47.520Z,101926.91
2019-03-30T07:47:53.733Z,101922.39
2019-03-30T07:48:59.258Z,101923.12
2019-03-30T07:50:05.184Z,101926.52
2019-03-30T07:51:10.698Z,101933.08
2019-03-30T07:52:16.360Z,101939.61
2019-03-30T07:53:26.533Z,101935.14
2019-03-30T07:54:29.408Z,101938.28
2019-03-30T07:55:35.242Z,101939.99
2019-03-30T07:56:40.780Z,101934.07
2019-03-30T07:57:46.448Z,101931.80
2019-03-30T07:58:52.096Z,101923.71
2019-03-30T07:59:57.618Z,101930.72
2019-03-30T08:01:03.183Z,101917.19
2019-03-30T08:02:08.799Z,101925.08
2019-03-30T08:03:14.612Z,101917.48
2019-03-30T08:04:20.509Z,101920.88
2019-03-30T08:05:26.115Z,101925.59
2019-03-30T08:06:31.734Z,101930.73
2019-03-30T08:07:37.457Z,101938.13
2019-03-30T08:08:43.111Z,101940.58
2019-03-30T08:09:48.673Z,101937.31
2019-03-30T08:10:54.464Z,101932.75
2019-03-30T08:12:00.228Z,101929.95
2019-03-30T08:13:05.871Z,101927.58
2019-03-30T08:14:11.865Z,101929.65
2019-03-30T08:15:17.482Z,101931.36
2019-03-30T08:16:23.346Z,101925.81
2019-03-30T08:17:29.693Z,101923.88
2019-03-30T08:18:35.636Z,101924.04
2019-03-30T08:19:41.287Z,101927.08
2019-03-30T08:20:47.048Z,101927.81
2019-03-30T08:21:52.801Z,101927.11
2019-03-30T08:22:59.287Z,101922.04
2019-03-30T08:24:04.965Z,101932.09
2019-03-30T08:25:11.210Z,101931.91
2019-03-30T08:26:17.550Z,101931.30
2019-03-30T08:27:23.065Z,101933.02
2019-03-30T08:28:28.751Z,101931.08
2019-03-30T08:29:34.810Z,101933.52
2019-03-30T08:30:40.368Z,101940.56
2019-03-30T08:31:45.986Z,101933.77
2019-03-30T08:32:53.017Z,101931.01
2019-03-30T08:33:58.903Z,101933.93
2019-03-30T08:35:04.818Z,101936.50
2019-03-30T08:36:10.545Z,101937.70
2019-03-30T08:37:16.185Z,101930.94
2019-03-30T08:38:22.059Z,101936.14
2019-03-30T08:39:27.987Z,101934.33
2019-03-30T08:40:33.638Z,101939.44
2019-03-30T08:41:39.305Z,101933.62
2019-03-30T08:42:45.138Z,101933.02
2019-03-30T08:43:52.850Z,101938.13
2019-03-30T08:44:58.809Z,101936.70
2019-03-30T08:46:05.045Z,101936.48
2019-03-30T08:47:10.793Z,101933.20
2019-03-30T08:48:16.445Z,101935.30
2019-03-30T08:49:23.734Z,101940.40
2019-03-30T08:50:29.347Z,101936.55
2019-03-30T08:51:35.009Z,101937.18
2019-03-30T08:52:40.658Z,101930.76
2019-03-30T08:53:54.496Z,101932.24
2019-03-30T08:54:53.937Z,101929.82
2019-03-30T08:55:59.563Z,101934.83
2019-03-30T08:57:05.681Z,101929.77
2019-03-30T08:58:11.395Z,101927.45
2019-03-30T08:59:17.293Z,101925.54
2019-03-30T09:00:38.243Z,101928.45
2019-03-30T09:01:44.773Z,101927.84
2019-03-30T09:02:50.866Z,101928.22
2019-03-30T09:03:56.549Z,101925.93
2019-03-30T09:05:02.207Z,101924.46
2019-03-30T09:06:08.260Z,101923.03
2019-03-30T09:07:13.951Z,101921.09
2019-03-30T09:08:19.711Z,101918.66
2019-03-30T09:09:25.370Z,101922.43
2019-03-30T09:10:30.964Z,101917.38
2019-03-30T09:11:36.838Z,101921.48
2019-03-30T09:12:42.494Z,101922.58
2019-03-30T09:13:48.352Z,101919.58
2019-03-30T09:14:53.883Z,101922.86
2019-03-30T09:15:59.554Z,101917.42
2019-03-30T09:17:05.435Z,101915.95
2019-03-30T09:18:11.073Z,101922.02
2019-03-30T09:19:16.815Z,101915.95
2019-03-30T09:20:22.575Z,101922.91
2019-03-30T09:21:28.236Z,101911.23
2019-03-30T09:22:34.152Z,101911.00
2019-03-30T09:23:39.877Z,101906.89
2019-03-30T09:24:45.396Z,101907.61
2019-03-30T09:25:51.548Z,101906.66
2019-03-30T09:26:57.442Z,101907.37
2019-03-30T09:28:03.179Z,101906.30
2019-03-30T09:29:08.813Z,101910.07
2019-03-30T09:30:14.628Z,101904.11
2019-03-30T09:31:20.543Z,101902.16
2019-03-30T09:32:26.719Z,101907.77
2019-03-30T09:33:32.316Z,101906.30
2019-03-30T09:34:37.920Z,101900.38
2019-03-30T09:35:43.583Z,101901.09
2019-03-30T09:36:49.395Z,101895.51
2019-03-30T09:37:55.452Z,101895.27
2019-03-30T09:39:01.048Z,101895.39
2019-03-30T09:40:07.474Z,101894.53
2019-03-30T09:41:13.025Z,101904.77
2019-03-30T09:42:18.844Z,101889.68
2019-03-30T09:43:24.494Z,101896.01
2019-03-30T09:44:30.176Z,101892.16
2019-03-30T09:45:35.817Z,101891.39
2019-03-30T09:46:41.593Z,101886.31
2019-03-30T09:47:47.553Z,101889.94
2019-03-30T09:48:53.141Z,101884.34
2019-03-30T09:50:02.128Z,101888.61
2019-03-30T09:51:06.025Z,101889.19
2019-03-30T09:52:11.609Z,101882.77
2019-03-30T09:53:19.843Z,101884.70
2019-03-30T09:54:25.554Z,101880.55
2019-03-30T09:55:31.173Z,101881.53
2019-03-30T09:56:37.136Z,101885.66
2019-03-30T09:57:42.804Z,101884.41
2019-03-30T09:58:48.375Z,101884.16
2019-03-30T09:59:53.935Z,101882.09
2019-03-30T10:01:00.004Z,101877.48
2019-03-30T10:02:05.766Z,101876.23
2019-03-30T10:03:11.269Z,101876.34
2019-03-30T10:04:18.213Z,101879.25
2019-03-30T10:05:23.805Z,101870.63
2019-03-30T10:06:34.361Z,101870.00
2019-03-30T10:07:36.878Z,101874.13
2019-03-30T10:08:42.525Z,101870.71
2019-03-30T10:09:48.257Z,101871.16
2019-03-30T10:10:54.266Z,101874.09
2019-03-30T10:11:59.877Z,101869.19
2019-03-30T10:13:05.905Z,101872.83
2019-03-30T10:14:11.533Z,101871.23
2019-03-30T10:15:17.725Z,101871.31
2019-03-30T10:16:23.600Z,101871.68
2019-03-30T10:17:29.380Z,101871.42
2019-03-30T10:18:35.213Z,101866.44
2019-03-30T10:19:41.343Z,101879.19
2019-03-30T10:20:47.012Z,101867.91
2019-03-30T10:21:52.878Z,101868.63
2019-03-30T10:22:58.678Z,101866.17
2019-03-30T10:24:05.878Z,101867.87
2019-03-30T10:25:11.785Z,101861.06
2019-03-30T10:26:19.014Z,101867.98
2019-03-30T10:27:24.649Z,101868.20
2019-03-30T10:28:30.968Z,101864.55
2019-03-30T10:29:36.902Z,101868.30
2019-03-30T10:30:42.610Z,101859.64
2019-03-30T10:31:48.228Z,101861.20
2019-03-30T10:32:53.899Z,101859.11
2019-03-30T10:33:59.458Z,101861.67
2019-03-30T10:35:05.751Z,101862.26
2019-03-30T10:36:11.339Z,101859.68
2019-03-30T10:37:17.070Z,101861.35
2019-03-30T10:38:22.687Z,101859.75
2019-03-30T10:39:28.293Z,101861.45
2019-03-30T10:40:33.865Z,101856.69
2019-03-30T10:41:39.791Z,101857.88
2019-03-30T10:42:45.484Z,101852.88
2019-03-30T10:43:51.039Z,101848.59
2019-03-30T10:44:56.742Z,101853.35
2019-03-30T10:46:02.483Z,101848.70
2019-03-30T10:47:08.144Z,101848.42
2019-03-30T10:48:14.283Z,101848.16
2019-03-30T10:49:19.992Z,101843.02
2019-03-30T10:50:25.801Z,101845.79
2019-03-30T10:51:31.874Z,101846.52
2019-03-30T10:52:37.581Z,101840.89
2019-03-30T10:53:43.276Z,101837.94
2019-03-30T10:54:52.948Z,101844.84
2019-03-30T10:55:56.826Z,101843.87
2019-03-30T10:57:02.844Z,101843.72
2019-03-30T10:58:08.512Z,101838.09
2019-03-30T10:59:14.027Z,101843.17
2019-03-30T11:00:37.632Z,101838.03
2019-03-30T11:01:43.301Z,101842.41
2019-03-30T11:02:48.910Z,101835.31
2019-03-30T11:03:54.603Z,101838.20
2019-03-30T11:05:00.634Z,101839.64
2019-03-30T11:06:06.323Z,101833.63
2019-03-30T11:07:11.882Z,101831.20
2019-03-30T11:08:17.785Z,101833.11
2019-03-30T11:09:23.611Z,101842.22
2019-03-30T11:10:29.188Z,101839.41
2019-03-30T11:11:34.828Z,101845.96
2019-03-30T11:12:40.702Z,101834.75
2019-03-30T11:13:46.706Z,101840.47
2019-03-30T11:14:52.630Z,101839.50
2019-03-30T11:15:58.618Z,101829.34
2019-03-30T11:17:04.362Z,101841.62
2019-03-30T11:18:09.999Z,101833.42
2019-03-30T11:19:15.613Z,101830.98
2019-03-30T11:20:21.796Z,101825.18
2019-03-30T11:21:27.476Z,101830.34
2019-03-30T11:22:33.118Z,101828.80
2019-03-30T11:23:38.704Z,101820.34
2019-03-30T11:24:44.631Z,101828.93
2019-03-30T11:25:50.292Z,101831.20
2019-03-30T11:26:56.437Z,101832.42
2019-03-30T11:28:02.051Z,101832.63
2019-03-30T11:29:07.828Z,101836.16
2019-03-30T11:30:13.569Z,101826.12
2019-03-30T11:31:19.281Z,101823.64
2019-03-30T11:32:25.041Z,101826.89
2019-03-30T11:33:30.645Z,101816.87
2019-03-30T11:34:36.721Z,101811.72
2019-03-30T11:35:42.213Z,101813.38
2019-03-30T11:36:47.846Z,101809.23
2019-03-30T11:37:53.446Z,101815.66
2019-03-30T11:39:03.413Z,101818.41
2019-03-30T11:40:09.644Z,101817.43
2019-03-30T11:41:15.227Z,101812.59
2019-03-30T11:42:21.095Z,101809.13
2019-03-30T11:43:27.120Z,101802.28
2019-03-30T11:44:32.751Z,101812.86
2019-03-30T11:45:38.508Z,101800.78
2019-03-30T11:46:44.373Z,101805.66
2019-03-30T11:47:49.999Z,101806.05
2019-03-30T11:48:56.021Z,101804.22
2019-03-30T11:50:01.728Z,101801.38
2019-03-30T11:51:07.475Z,101806.25
2019-03-30T11:52:13.172Z,101802.59
2019-03-30T11:53:18.991Z,101798.56
2019-03-30T11:54:24.877Z,101802.79
2019-03-30T11:55:30.444Z,101797.91
2019-03-30T11:56:35.941Z,101798.77
2019-03-30T11:57:42.035Z,101799.61
2019-03-30T11:58:47.631Z,101792.90
2019-03-30T11:59:53.188Z,101799.48
2019-03-30T12:00:58.798Z,101785.20
2019-03-30T12:02:04.803Z,101784.19
2019-03-30T12:03:10.371Z,101793.59
2019-03-30T12:04:16.621Z,101782.36
2019-03-30T12:05:22.249Z,101791.62
2019-03-30T12:06:28.007Z,101790.28
2019-03-30T12:07:33.563Z,101788.94
2019-03-30T12:08:39.108Z,101785.53
2019-03-30T12:09:44.755Z,101785.70
2019-03-30T12:10:50.902Z,101793.59
2019-03-30T12:11:56.614Z,101787.23
2019-03-30T12:13:02.311Z,101790.61
2019-03-30T12:14:07.879Z,101790.97
2019-03-30T12:15:13.853Z,101784.25
2019-03-30T12:16:19.844Z,101782.55
2019-03-30T12:17:26.976Z,101775.34
2019-03-30T12:18:32.652Z,101779.37
2019-03-30T12:19:38.296Z,101771.03
2019-03-30T12:20:43.912Z,101773.09
2019-03-30T12:21:49.536Z,101779.02
2019-03-30T12:22:55.206Z,101783.08
2019-03-30T12:24:00.973Z,101778.27
2019-03-30T12:25:07.194Z,101777.15
2019-03-30T12:26:12.932Z,101783.20
2019-03-30T12:27:18.831Z,101771.48
2019-03-30T12:28:24.815Z,101775.83
2019-03-30T12:29:30.427Z,101770.62
2019-03-30T12:30:36.091Z,101771.77
2019-03-30T12:31:42.053Z,101773.13
2019-03-30T12:32:47.975Z,101769.09
2019-03-30T12:33:53.625Z,101763.06